ESNU/UME METAR and TAF weather

Enter ICAO airport designator
Station Type Date Time Source
ESNU METAR 2019/06/24 23:20 UTC NOAA

ESNU 242320Z 00000KT CAVOK 07/05 Q1028


Station Type Date Time Source
ESNU Decoded METAR 2019/06/24 23:20 UTC NOAA

Umea Flygplats, Sweden (ESNU) 63-48N 020-17E 14M
Jun 24, 2019 - 07:20 PM EDT / 2019.06.24 2320 UTC
Wind: Calm:0
Visibility: greater than 7 mile(s):0
Temperature: 44 F (7 C)
Dew Point: 41 F (5 C)
Relative Humidity: 87%
Pressure (altimeter): 30.36 in. Hg (1028 hPa)
ob: ESNU 242320Z 00000KT CAVOK 07/05 Q1028
cycle: 23

Station Type Date Time Source
ESNU TAF 2019/01/04 00:39 UTC NOAA

TAF TAF ESNU 042330Z 0500/0524 34002KT CAVOK PROB40 0500/0503 BKN008

Example: see airport list